Time;durP1;ratioP1;P1;durP2;ratioP2;P2;SDS_P1;SDS_P2;PMS_P1;PMS_P2;Temp;Humidity;BMP_temperature;BMP_pressure;BME280_temperature;BME280_humidity;BME280_pressure;Samples;Min_cycle;Max_cycle;Signal;HPM_P1;HPM_P2
2023/03/22 00:00:14;;;;;;;13.57;2.07;;;;;;;;;;5114277;28;20710;-78
2023/03/22 00:02:41;;;;;;;15.90;1.90;;;;;;;;;;5114570;28;20686;-78
2023/03/22 00:05:09;;;;;;;13.73;2.13;;;;;;;;;;5114276;27;20264;-79
2023/03/22 00:07:37;;;;;;;10.60;1.77;;;;;;;;;;5114089;28;20232;-77
2023/03/22 00:10:07;;;;;;;13.07;2.03;;;;;;;;;;5114520;28;20194;-80
2023/03/22 00:12:34;;;;;;;13.13;2.00;;;;;;;;;;5113913;28;20280;-78
2023/03/22 00:15:01;;;;;;;17.10;2.50;;;;;;;;;;5114064;28;20280;-79
2023/03/22 00:17:29;;;;;;;13.83;2.03;;;;;;;;;;5114245;28;20217;-79
2023/03/22 00:19:57;;;;;;;11.63;1.97;;;;;;;;;;5113664;27;20280;-78
2023/03/22 00:22:24;;;;;;;12.67;2.63;;;;;;;;;;5114302;28;20194;-78
2023/03/22 00:24:52;;;;;;;12.10;2.13;;;;;;;;;;5114139;28;20226;-78
2023/03/22 00:27:20;;;;;;;12.10;1.93;;;;;;;;;;5113413;27;20219;-78
2023/03/22 00:29:47;;;;;;;11.97;2.10;;;;;;;;;;5114371;28;20281;-78
2023/03/22 00:32:15;;;;;;;10.77;1.70;;;;;;;;;;5113351;28;20289;-79
2023/03/22 00:34:42;;;;;;;19.73;2.40;;;;;;;;;;5113852;28;20549;-77
2023/03/22 00:37:09;;;;;;;13.67;2.60;;;;;;;;;;5114151;28;20296;-79
2023/03/22 00:39:36;;;;;;;13.07;2.00;;;;;;;;;;5113719;28;20702;-78
2023/03/22 00:42:04;;;;;;;11.53;2.27;;;;;;;;;;5113518;28;20213;-79
2023/03/22 00:44:33;;;;;;;11.13;2.07;;;;;;;;;;5113882;28;20217;-79
2023/03/22 00:47:00;;;;;;;10.53;2.00;;;;;;;;;;5113451;28;20230;-78
2023/03/22 00:49:28;;;;;;;13.63;1.90;;;;;;;;;;5113040;28;20231;-78
2023/03/22 00:51:55;;;;;;;12.20;2.53;;;;;;;;;;5113352;28;20194;-79
2023/03/22 00:54:22;;;;;;;11.80;2.10;;;;;;;;;;5113486;28;20293;-77
2023/03/22 00:56:50;;;;;;;14.63;2.23;;;;;;;;;;5113092;28;20647;-79
2023/03/22 00:59:18;;;;;;;13.90;2.33;;;;;;;;;;5113305;28;20247;-79
2023/03/22 01:01:46;;;;;;;12.83;2.33;;;;;;;;;;5112459;28;20562;-78
2023/03/22 01:04:16;;;;;;;9.17;2.03;;;;;;;;;;5112502;28;20228;-78
2023/03/22 01:06:45;;;;;;;15.00;2.40;;;;;;;;;;5112954;28;20198;-79
2023/03/22 01:09:13;;;;;;;13.00;2.20;;;;;;;;;;5112628;28;20608;-78
2023/03/22 01:11:40;;;;;;;9.33;2.00;;;;;;;;;;5113163;28;20666;-79
2023/03/22 01:14:08;;;;;;;16.57;2.27;;;;;;;;;;5112803;28;20290;-78
2023/03/22 01:16:35;;;;;;;12.27;2.20;;;;;;;;;;5112778;28;20247;-79
2023/03/22 01:19:05;;;;;;;12.87;2.20;;;;;;;;;;5112664;28;20670;-78
2023/03/22 01:21:32;;;;;;;9.73;1.63;;;;;;;;;;5112934;28;20204;-79
2023/03/22 01:23:59;;;;;;;9.07;1.73;;;;;;;;;;5112794;28;20712;-78
2023/03/22 01:26:27;;;;;;;10.07;2.27;;;;;;;;;;5112875;28;20250;-78
2023/03/22 01:28:54;;;;;;;12.83;2.10;;;;;;;;;;5112632;28;20229;-78
2023/03/22 01:31:21;;;;;;;13.20;2.07;;;;;;;;;;5112572;28;20289;-78
2023/03/22 01:33:48;;;;;;;12.87;2.27;;;;;;;;;;5112353;28;20229;-78
2023/03/22 01:36:17;;;;;;;16.00;2.20;;;;;;;;;;5112667;28;20629;-79
2023/03/22 01:38:44;;;;;;;14.70;2.40;;;;;;;;;;5112093;28;20226;-79
2023/03/22 01:41:11;;;;;;;13.23;2.63;;;;;;;;;;5112195;28;20197;-79
2023/03/22 01:43:38;;;;;;;15.43;2.10;;;;;;;;;;5112046;27;20285;-78
2023/03/22 01:46:06;;;;;;;16.30;2.40;;;;;;;;;;5112092;28;20396;-79
2023/03/22 01:48:35;;;;;;;12.60;2.00;;;;;;;;;;5112567;28;20293;-79
2023/03/22 01:51:07;;;;;;;12.90;2.03;;;;;;;;;;5112400;28;20236;-78
2023/03/22 01:53:38;;;;;;;10.97;2.23;;;;;;;;;;5090963;28;20682;-79
2023/03/22 01:56:06;;;;;;;13.00;2.10;;;;;;;;;;5091226;28;20247;-80
2023/03/22 01:58:34;;;;;;;10.70;2.20;;;;;;;;;;5091918;28;20222;-79
2023/03/22 02:01:02;;;;;;;15.77;2.50;;;;;;;;;;5091830;28;20281;-78
2023/03/22 02:03:35;;;;;;;11.03;1.97;;;;;;;;;;5091253;28;20645;-79
2023/03/22 02:06:03;;;;;;;11.03;1.87;;;;;;;;;;5091668;28;20198;-78
2023/03/22 02:08:31;;;;;;;12.73;2.60;;;;;;;;;;5091630;28;20194;-78
2023/03/22 02:11:00;;;;;;;11.33;1.77;;;;;;;;;;5092067;28;20281;-78
2023/03/22 02:13:37;;;;;;;13.43;2.27;;;;;;;;;;5104436;28;20301;-79
2023/03/22 02:16:11;;;;;;;16.03;2.37;;;;;;;;;;5112009;28;20190;-78
2023/03/22 02:18:44;;;;;;;13.20;1.63;;;;;;;;;;5111865;28;20225;-78
2023/03/22 02:21:44;;;;;;;12.73;2.13;;;;;;;;;;5111387;28;20628;-78
2023/03/22 02:24:26;;;;;;;12.47;1.70;;;;;;;;;;5088862;28;20246;-78
2023/03/22 02:27:14;;;;;;;11.03;2.27;;;;;;;;;;5086601;28;20294;-78
2023/03/22 02:29:43;;;;;;;10.80;2.10;;;;;;;;;;5089315;28;20205;-79
2023/03/22 02:32:25;;;;;;;13.43;2.27;;;;;;;;;;5088778;28;20202;-79
2023/03/22 02:35:11;;;;;;;17.23;2.03;;;;;;;;;;5088965;28;20711;-79
2023/03/22 02:37:45;;;;;;;13.50;1.80;;;;;;;;;;5088980;28;20297;-79
2023/03/22 02:40:15;;;;;;;12.93;2.03;;;;;;;;;;5086009;28;20660;-77
2023/03/22 02:42:48;;;;;;;10.77;1.83;;;;;;;;;;5077148;28;20782;-78
2023/03/22 02:45:18;;;;;;;10.93;2.20;;;;;;;;;;5068474;28;20218;-78
2023/03/22 02:47:52;;;;;;;11.33;1.87;;;;;;;;;;5068422;28;20434;-77
2023/03/22 02:50:23;;;;;;;9.53;1.77;;;;;;;;;;5069206;28;20199;-78
2023/03/22 02:52:53;;;;;;;12.10;1.87;;;;;;;;;;5073298;28;20218;-78
2023/03/22 02:55:26;;;;;;;10.83;2.17;;;;;;;;;;5085800;28;20284;-78
2023/03/22 02:57:55;;;;;;;12.43;1.90;;;;;;;;;;5094817;28;20194;-79
2023/03/22 03:00:22;;;;;;;9.87;1.60;;;;;;;;;;5095607;28;20564;-78
2023/03/22 03:02:51;;;;;;;9.03;1.50;;;;;;;;;;5094944;28;20808;-78
2023/03/22 03:05:18;;;;;;;12.97;2.13;;;;;;;;;;5094711;28;20782;-79
2023/03/22 03:07:48;;;;;;;10.50;1.73;;;;;;;;;;5095177;28;20198;-78
2023/03/22 03:10:17;;;;;;;12.53;2.20;;;;;;;;;;5094893;28;20218;-80
2023/03/22 03:12:46;;;;;;;13.97;2.43;;;;;;;;;;5102377;28;20304;-76
2023/03/22 03:15:15;;;;;;;14.53;2.20;;;;;;;;;;5115370;28;20213;-79
2023/03/22 03:17:49;;;;;;;11.03;1.70;;;;;;;;;;5115507;28;20208;-78
2023/03/22 03:20:20;;;;;;;12.80;1.90;;;;;;;;;;5115222;28;20621;-79
2023/03/22 03:22:53;;;;;;;7.77;1.40;;;;;;;;;;5114902;28;20185;-78
2023/03/22 03:25:24;;;;;;;9.20;1.67;;;;;;;;;;5114692;28;20312;-78
2023/03/22 03:27:56;;;;;;;11.37;2.13;;;;;;;;;;5115266;28;20730;-78
2023/03/22 03:30:26;;;;;;;9.27;1.40;;;;;;;;;;5115513;28;20296;-78
2023/03/22 03:32:54;;;;;;;10.27;1.80;;;;;;;;;;5115093;28;20615;-78
2023/03/22 03:35:24;;;;;;;12.23;1.83;;;;;;;;;;5114841;28;20226;-79
2023/03/22 03:37:52;;;;;;;13.47;1.60;;;;;;;;;;5115220;28;20194;-78
2023/03/22 03:40:21;;;;;;;11.30;2.47;;;;;;;;;;5114734;28;20197;-78
2023/03/22 03:42:50;;;;;;;12.87;1.50;;;;;;;;;;5114881;28;20194;-79
2023/03/22 03:45:20;;;;;;;14.40;2.43;;;;;;;;;;5114508;28;20575;-78
2023/03/22 03:47:54;;;;;;;12.50;1.77;;;;;;;;;;5115074;28;20237;-78
2023/03/22 03:50:21;;;;;;;10.87;1.80;;;;;;;;;;5114564;28;20193;-78
2023/03/22 03:52:49;;;;;;;13.37;1.97;;;;;;;;;;5114617;28;20261;-78
2023/03/22 03:55:16;;;;;;;14.23;2.27;;;;;;;;;;5114703;28;20288;-79
2023/03/22 03:57:43;;;;;;;17.70;2.30;;;;;;;;;;5114747;27;20229;-80
2023/03/22 04:00:13;;;;;;;13.30;1.93;;;;;;;;;;5114752;28;20285;-78
2023/03/22 04:02:42;;;;;;;12.47;1.90;;;;;;;;;;5113865;28;20662;-79
2023/03/22 04:05:10;;;;;;;10.67;1.70;;;;;;;;;;5114695;28;20233;-78
2023/03/22 04:07:37;;;;;;;13.73;1.83;;;;;;;;;;5114289;28;20236;-78
2023/03/22 04:10:05;;;;;;;9.10;1.30;;;;;;;;;;5114059;28;20197;-78
2023/03/22 04:12:32;;;;;;;12.63;2.17;;;;;;;;;;5114858;28;20236;-79
2023/03/22 04:14:59;;;;;;;17.47;1.90;;;;;;;;;;5114317;28;20201;-79
2023/03/22 04:17:28;;;;;;;16.13;2.13;;;;;;;;;;5114028;28;20705;-79
2023/03/22 04:19:56;;;;;;;11.90;2.07;;;;;;;;;;5113952;28;20734;-79
2023/03/22 04:22:24;;;;;;;14.43;2.27;;;;;;;;;;5114016;28;20229;-80
2023/03/22 04:24:51;;;;;;;9.10;1.70;;;;;;;;;;5113921;28;20229;-79
2023/03/22 04:27:18;;;;;;;12.63;1.70;;;;;;;;;;5114342;28;20251;-79
2023/03/22 04:29:47;;;;;;;12.40;1.93;;;;;;;;;;5114249;28;20239;-79
2023/03/22 04:32:15;;;;;;;14.47;2.20;;;;;;;;;;5113990;28;20559;-77
2023/03/22 04:34:42;;;;;;;12.27;1.97;;;;;;;;;;5114183;28;20277;-77
2023/03/22 04:37:11;;;;;;;13.03;2.23;;;;;;;;;;5113247;28;20237;-78
2023/03/22 04:39:38;;;;;;;14.37;2.43;;;;;;;;;;5114239;28;20226;-78
2023/03/22 04:42:05;;;;;;;14.57;1.93;;;;;;;;;;5113796;27;20638;-78
2023/03/22 04:44:33;;;;;;;9.07;2.00;;;;;;;;;;5113570;28;20280;-78
2023/03/22 04:47:00;;;;;;;12.53;2.27;;;;;;;;;;5113490;28;20320;-77
2023/03/22 04:49:27;;;;;;;11.47;2.13;;;;;;;;;;5113794;28;20229;-78
2023/03/22 04:51:54;;;;;;;9.53;2.10;;;;;;;;;;5113189;28;20239;-78
2023/03/22 04:54:23;;;;;;;13.23;2.40;;;;;;;;;;5113541;28;20288;-78
2023/03/22 04:56:50;;;;;;;14.77;2.40;;;;;;;;;;5113652;28;20198;-79
2023/03/22 04:59:19;;;;;;;14.90;2.00;;;;;;;;;;5113814;28;20248;-78
2023/03/22 05:01:46;;;;;;;12.93;2.33;;;;;;;;;;5113012;28;20280;-78
2023/03/22 05:04:14;;;;;;;14.20;2.47;;;;;;;;;;5113074;28;20914;-78
2023/03/22 05:06:41;;;;;;;13.30;2.53;;;;;;;;;;5113420;28;20261;-78
2023/03/22 05:09:09;;;;;;;12.90;1.80;;;;;;;;;;5113131;28;20285;-77
2023/03/22 05:11:39;;;;;;;16.13;2.37;;;;;;;;;;5113202;28;20194;-79
2023/03/22 05:14:06;;;;;;;9.23;1.80;;;;;;;;;;5111611;28;20205;-78
2023/03/22 05:16:34;;;;;;;13.33;2.00;;;;;;;;;;5113077;28;20214;-76
2023/03/22 05:19:02;;;;;;;10.57;2.23;;;;;;;;;;5113091;28;20194;-78
2023/03/22 05:21:35;;;;;;;13.10;2.13;;;;;;;;;;5112548;28;20194;-78
2023/03/22 05:24:02;;;;;;;16.00;2.40;;;;;;;;;;5112842;28;20196;-77
2023/03/22 05:26:30;;;;;;;14.77;2.10;;;;;;;;;;5112820;28;20226;-78
2023/03/22 05:28:58;;;;;;;11.90;2.07;;;;;;;;;;5113033;28;20548;-78
2023/03/22 05:31:27;;;;;;;9.40;2.20;;;;;;;;;;5112288;28;20923;-78
2023/03/22 05:33:54;;;;;;;15.30;2.00;;;;;;;;;;5112656;28;20193;-78
2023/03/22 05:36:23;;;;;;;10.80;2.03;;;;;;;;;;5112400;28;20281;-78
2023/03/22 05:38:50;;;;;;;17.43;2.17;;;;;;;;;;5112578;28;20217;-78
2023/03/22 05:41:18;;;;;;;14.37;1.87;;;;;;;;;;5113179;28;20228;-78
2023/03/22 05:43:45;;;;;;;15.07;2.40;;;;;;;;;;5112505;28;20615;-79
2023/03/22 05:46:13;;;;;;;17.37;2.57;;;;;;;;;;5112423;28;20265;-78
2023/03/22 05:48:41;;;;;;;13.03;2.23;;;;;;;;;;5112490;28;20713;-79
2023/03/22 05:51:09;;;;;;;12.17;2.37;;;;;;;;;;5112424;28;20194;-79
2023/03/22 05:53:36;;;;;;;15.70;2.30;;;;;;;;;;5112496;28;20236;-78
2023/03/22 05:56:03;;;;;;;13.93;2.20;;;;;;;;;;5112552;28;20720;-79
2023/03/22 05:58:31;;;;;;;12.23;2.20;;;;;;;;;;5112253;28;20288;-79
2023/03/22 06:00:59;;;;;;;14.63;2.60;;;;;;;;;;5112292;28;20197;-79
2023/03/22 06:03:28;;;;;;;12.70;2.17;;;;;;;;;;5112298;28;20201;-79
2023/03/22 06:05:56;;;;;;;13.10;2.13;;;;;;;;;;5111335;28;20688;-77
2023/03/22 06:08:23;;;;;;;12.33;2.30;;;;;;;;;;5112401;28;20276;-78
2023/03/22 06:10:50;;;;;;;13.63;2.60;;;;;;;;;;5112064;28;20288;-77
2023/03/22 06:13:18;;;;;;;11.67;2.37;;;;;;;;;;5112050;28;20690;-78
2023/03/22 06:15:45;;;;;;;16.83;2.60;;;;;;;;;;5112119;28;20220;-77
2023/03/22 06:18:12;;;;;;;13.53;2.60;;;;;;;;;;5112297;28;20288;-78
2023/03/22 06:20:41;;;;;;;14.27;2.50;;;;;;;;;;5111831;28;20233;-77
2023/03/22 06:23:08;;;;;;;17.77;2.37;;;;;;;;;;5112040;28;20217;-77
2023/03/22 06:25:35;;;;;;;14.23;2.43;;;;;;;;;;5111407;28;20316;-76
2023/03/22 06:28:02;;;;;;;15.93;2.43;;;;;;;;;;5112321;28;20236;-77
2023/03/22 06:30:30;;;;;;;13.30;2.43;;;;;;;;;;5111900;28;20276;-78
2023/03/22 06:32:59;;;;;;;10.17;2.17;;;;;;;;;;5111785;28;20193;-75
2023/03/22 06:35:26;;;;;;;13.50;2.77;;;;;;;;;;5111308;28;20209;-78
2023/03/22 06:37:55;;;;;;;12.43;2.23;;;;;;;;;;5111435;28;20213;-77
2023/03/22 06:40:22;;;;;;;13.13;2.87;;;;;;;;;;5111673;28;20193;-77
2023/03/22 06:42:49;;;;;;;9.30;2.40;;;;;;;;;;5109830;28;20289;-77
2023/03/22 06:45:17;;;;;;;16.00;3.00;;;;;;;;;;5118770;27;20681;-77
2023/03/22 06:47:44;;;;;;;12.67;2.43;;;;;;;;;;5131553;27;20327;-77
2023/03/22 06:50:14;;;;;;;13.07;2.40;;;;;;;;;;5117922;27;20243;-77
2023/03/22 06:52:41;;;;;;;13.10;2.70;;;;;;;;;;5098855;28;20210;-77
2023/03/22 06:55:10;;;;;;;16.20;2.77;;;;;;;;;;5111095;28;20532;-75
2023/03/22 06:57:37;;;;;;;11.57;2.03;;;;;;;;;;5111111;28;20221;-77
2023/03/22 07:00:05;;;;;;;13.43;2.50;;;;;;;;;;5111239;28;20194;-76
2023/03/22 07:02:32;;;;;;;11.63;2.20;;;;;;;;;;5109719;28;20231;-77
2023/03/22 07:04:59;;;;;;;12.63;2.90;;;;;;;;;;5110867;28;20630;-78
2023/03/22 07:07:26;;;;;;;14.90;2.80;;;;;;;;;;5110173;28;20257;-78
2023/03/22 07:09:55;;;;;;;9.83;2.07;;;;;;;;;;5111280;28;20285;-77
2023/03/22 07:12:24;;;;;;;11.50;2.40;;;;;;;;;;5111142;28;20251;-77
2023/03/22 07:14:51;;;;;;;9.73;2.10;;;;;;;;;;5111058;28;20216;-76
2023/03/22 07:17:18;;;;;;;13.07;2.30;;;;;;;;;;5110957;28;20629;-77
2023/03/22 07:19:46;;;;;;;13.67;2.40;;;;;;;;;;5110998;28;20190;-79
2023/03/22 07:22:13;;;;;;;9.60;2.20;;;;;;;;;;5110943;28;20612;-78
2023/03/22 07:24:40;;;;;;;8.80;2.40;;;;;;;;;;5110471;28;20277;-77
2023/03/22 07:27:07;;;;;;;11.57;2.10;;;;;;;;;;5110475;28;20252;-78
2023/03/22 07:29:36;;;;;;;8.27;2.30;;;;;;;;;;5111397;28;20198;-77
2023/03/22 07:32:03;;;;;;;13.87;2.40;;;;;;;;;;5110185;28;20233;-77
2023/03/22 07:34:30;;;;;;;9.73;2.20;;;;;;;;;;5110787;28;20225;-78
2023/03/22 07:36:57;;;;;;;9.93;2.30;;;;;;;;;;5110993;28;20214;-77
2023/03/22 07:39:25;;;;;;;9.43;2.40;;;;;;;;;;5114831;28;20242;-77
2023/03/22 07:41:52;;;;;;;10.53;2.20;;;;;;;;;;5114611;28;20877;-78
2023/03/22 07:44:19;;;;;;;13.77;2.53;;;;;;;;;;5114092;28;20278;-79
2023/03/22 07:46:50;;;;;;;12.77;2.60;;;;;;;;;;5113881;28;20599;-77
2023/03/22 07:49:18;;;;;;;9.97;2.60;;;;;;;;;;5102543;28;20190;-77
2023/03/22 07:51:45;;;;;;;7.90;2.33;;;;;;;;;;5114282;28;20738;-77
2023/03/22 07:54:13;;;;;;;6.93;2.20;;;;;;;;;;5114898;27;20206;-78
2023/03/22 07:56:41;;;;;;;8.57;2.23;;;;;;;;;;5114232;28;20194;-77
2023/03/22 07:59:08;;;;;;;8.70;2.23;;;;;;;;;;5114405;28;20194;-76
2023/03/22 08:01:36;;;;;;;8.97;2.20;;;;;;;;;;5113817;27;20276;-76
2023/03/22 08:04:04;;;;;;;8.07;2.13;;;;;;;;;;5133377;27;20208;-77
2023/03/22 08:06:32;;;;;;;7.57;2.20;;;;;;;;;;5135402;27;20282;-77
2023/03/22 08:09:00;;;;;;;6.83;2.10;;;;;;;;;;5134922;27;20196;-77
2023/03/22 08:11:27;;;;;;;5.57;1.93;;;;;;;;;;5134426;27;20673;-77
2023/03/22 08:13:54;;;;;;;6.53;1.60;;;;;;;;;;5117315;27;20288;-78
2023/03/22 08:16:21;;;;;;;7.73;2.10;;;;;;;;;;5114170;28;20243;-77
2023/03/22 08:18:48;;;;;;;7.97;1.80;;;;;;;;;;5114168;28;20289;-77
2023/03/22 08:21:17;;;;;;;7.73;1.83;;;;;;;;;;5113873;28;20241;-76
2023/03/22 08:23:44;;;;;;;5.47;1.60;;;;;;;;;;5113739;27;20667;-77
2023/03/22 08:26:12;;;;;;;7.43;1.70;;;;;;;;;;5113744;28;20221;-77
2023/03/22 08:28:39;;;;;;;4.77;1.40;;;;;;;;;;5113466;28;20293;-77
2023/03/22 08:31:11;;;;;;;5.10;1.47;;;;;;;;;;5111428;28;20636;-76
2023/03/22 08:33:38;;;;;;;6.37;1.70;;;;;;;;;;5113735;28;20217;-76
2023/03/22 08:36:06;;;;;;;8.13;1.50;;;;;;;;;;5113772;28;20766;-76
2023/03/22 08:38:35;;;;;;;8.73;1.70;;;;;;;;;;5113231;28;20251;-77
2023/03/22 08:41:02;;;;;;;6.13;1.27;;;;;;;;;;5113439;28;20222;-75
2023/03/22 08:43:29;;;;;;;6.67;1.80;;;;;;;;;;5113844;28;20236;-76
2023/03/22 08:45:56;;;;;;;5.97;1.80;;;;;;;;;;5111480;28;20233;-77
2023/03/22 08:48:23;;;;;;;6.47;1.77;;;;;;;;;;5113349;28;20237;-77
2023/03/22 08:50:51;;;;;;;4.23;1.77;;;;;;;;;;5113236;28;20651;-77
2023/03/22 08:53:18;;;;;;;8.53;1.83;;;;;;;;;;5093072;28;20229;-79
2023/03/22 08:55:47;;;;;;;9.00;2.03;;;;;;;;;;5093143;28;20237;-77
2023/03/22 08:58:15;;;;;;;8.83;1.70;;;;;;;;;;5098104;28;20190;-78
2023/03/22 09:00:42;;;;;;;6.83;1.73;;;;;;;;;;5113024;28;20221;-77
2023/03/22 09:03:09;;;;;;;6.00;1.60;;;;;;;;;;5113110;28;20239;-77
2023/03/22 09:05:38;;;;;;;6.60;1.70;;;;;;;;;;5113185;28;20288;-77
2023/03/22 09:08:05;;;;;;;5.40;1.73;;;;;;;;;;5112917;28;20233;-77
2023/03/22 09:10:32;;;;;;;9.87;2.00;;;;;;;;;;5112285;28;20678;-76
2023/03/22 09:13:01;;;;;;;8.90;2.07;;;;;;;;;;5112843;28;20232;-78
2023/03/22 09:15:28;;;;;;;5.90;1.47;;;;;;;;;;5113231;28;20291;-77
2023/03/22 09:17:56;;;;;;;8.40;1.80;;;;;;;;;;5113104;28;20202;-77
2023/03/22 09:20:24;;;;;;;8.23;1.77;;;;;;;;;;5112063;28;20682;-77
2023/03/22 09:22:51;;;;;;;7.77;1.93;;;;;;;;;;5113215;28;20198;-78
2023/03/22 09:25:20;;;;;;;9.93;1.83;;;;;;;;;;5112400;28;20717;-76
2023/03/22 09:27:47;;;;;;;9.20;2.13;;;;;;;;;;5112237;28;20229;-77
2023/03/22 09:30:15;;;;;;;10.40;2.10;;;;;;;;;;5112618;28;20739;-77
2023/03/22 09:32:43;;;;;;;8.83;1.77;;;;;;;;;;5112112;28;20240;-77
2023/03/22 09:35:10;;;;;;;8.20;1.80;;;;;;;;;;5112339;28;20284;-76
2023/03/22 09:37:37;;;;;;;8.17;1.83;;;;;;;;;;5113021;28;20190;-77
2023/03/22 09:40:06;;;;;;;7.10;2.03;;;;;;;;;;5112446;28;20288;-76
2023/03/22 09:42:36;;;;;;;6.90;1.60;;;;;;;;;;5112269;28;20194;-75
2023/03/22 09:45:04;;;;;;;8.43;1.87;;;;;;;;;;5112998;28;20197;-76
2023/03/22 09:47:34;;;;;;;10.57;2.30;;;;;;;;;;5111654;28;20453;-76
2023/03/22 09:50:05;;;;;;;8.43;2.00;;;;;;;;;;5112222;28;20198;-76
2023/03/22 09:52:32;;;;;;;7.77;1.60;;;;;;;;;;5112273;28;20620;-77
2023/03/22 09:55:00;;;;;;;9.50;1.60;;;;;;;;;;5112360;28;20506;-76
2023/03/22 09:57:31;;;;;;;7.93;1.83;;;;;;;;;;5111958;28;20221;-77
2023/03/22 10:00:00;;;;;;;9.53;1.67;;;;;;;;;;5111509;28;20198;-78
2023/03/22 10:02:33;;;;;;;10.73;2.00;;;;;;;;;;5112172;28;20238;-78
2023/03/22 10:05:04;;;;;;;9.53;1.90;;;;;;;;;;5112468;28;20228;-77
2023/03/22 10:07:35;;;;;;;9.60;1.80;;;;;;;;;;5111937;28;20786;-76
2023/03/22 10:10:09;;;;;;;8.23;1.63;;;;;;;;;;5112032;28;20289;-76
2023/03/22 10:12:40;;;;;;;8.37;1.70;;;;;;;;;;5111442;28;20232;-76
2023/03/22 10:15:11;;;;;;;8.23;1.97;;;;;;;;;;5111748;28;20289;-76
2023/03/22 10:17:40;;;;;;;6.73;1.87;;;;;;;;;;5111036;28;20245;-76
2023/03/22 10:20:11;;;;;;;10.47;1.80;;;;;;;;;;5111743;28;20217;-76
2023/03/22 10:22:41;;;;;;;8.13;1.70;;;;;;;;;;5111389;28;20296;-77
2023/03/22 10:25:08;;;;;;;8.17;1.70;;;;;;;;;;5111690;28;20209;-77
2023/03/22 10:27:36;;;;;;;9.10;1.97;;;;;;;;;;5111441;28;20325;-76
2023/03/22 10:30:07;;;;;;;7.97;1.83;;;;;;;;;;5110721;28;20198;-77
2023/03/22 10:32:39;;;;;;;11.33;1.97;;;;;;;;;;5110904;28;20285;-76
2023/03/22 10:35:07;;;;;;;9.43;2.07;;;;;;;;;;5111587;28;20386;-76
2023/03/22 10:37:36;;;;;;;6.33;1.30;;;;;;;;;;5111963;28;20193;-76
2023/03/22 10:40:06;;;;;;;7.00;1.90;;;;;;;;;;5110165;28;20226;-74
2023/03/22 10:42:35;;;;;;;7.80;2.03;;;;;;;;;;5111485;28;20624;-76
2023/03/22 10:45:03;;;;;;;10.10;2.50;;;;;;;;;;5111404;28;20237;-76
2023/03/22 10:47:33;;;;;;;7.60;2.20;;;;;;;;;;5111004;28;20265;-77
2023/03/22 10:50:02;;;;;;;7.77;1.60;;;;;;;;;;5111580;28;20221;-77
2023/03/22 10:52:38;;;;;;;6.47;1.67;;;;;;;;;;5111122;28;20200;-76
2023/03/22 10:55:09;;;;;;;8.73;1.90;;;;;;;;;;5110494;28;20225;-77
2023/03/22 10:57:38;;;;;;;7.30;1.47;;;;;;;;;;5111861;28;20193;-78
2023/03/22 11:00:08;;;;;;;10.30;1.97;;;;;;;;;;5110892;28;20312;-78
2023/03/22 11:02:36;;;;;;;4.87;1.47;;;;;;;;;;5110894;28;20189;-79
2023/03/22 11:05:04;;;;;;;9.03;2.37;;;;;;;;;;5108051;28;20270;-78
2023/03/22 11:07:33;;;;;;;9.03;1.77;;;;;;;;;;5110975;28;20213;-79
2023/03/22 11:10:12;;;;;;;6.60;1.63;;;;;;;;;;5111070;28;20221;-79
2023/03/22 11:12:40;;;;;;;4.90;1.43;;;;;;;;;;5111991;28;20237;-78
2023/03/22 11:15:07;;;;;;;8.53;1.60;;;;;;;;;;5114774;27;20292;-78
2023/03/22 11:17:38;;;;;;;5.53;1.73;;;;;;;;;;5115155;28;20259;-78
2023/03/22 11:20:07;;;;;;;8.87;1.57;;;;;;;;;;5115176;28;20221;-78
2023/03/22 11:22:36;;;;;;;4.80;1.17;;;;;;;;;;5114937;28;20194;-79
2023/03/22 11:25:07;;;;;;;6.33;1.40;;;;;;;;;;5114615;28;20229;-78
2023/03/22 11:27:35;;;;;;;5.50;1.63;;;;;;;;;;5114701;28;20316;-77
2023/03/22 11:30:09;;;;;;;3.73;1.40;;;;;;;;;;5115006;28;20289;-78
2023/03/22 11:32:37;;;;;;;5.70;1.40;;;;;;;;;;5115165;28;20284;-78
2023/03/22 11:35:06;;;;;;;7.07;1.60;;;;;;;;;;5114860;28;20289;-78
2023/03/22 11:37:33;;;;;;;6.50;1.40;;;;;;;;;;5115385;28;20220;-79
2023/03/22 11:40:03;;;;;;;4.50;1.47;;;;;;;;;;5114657;28;20250;-78
2023/03/22 11:42:34;;;;;;;4.33;1.67;;;;;;;;;;5114478;28;20195;-77
2023/03/22 11:45:01;;;;;;;7.20;2.40;;;;;;;;;;5114904;28;20277;-79
2023/03/22 11:47:31;;;;;;;5.97;1.67;;;;;;;;;;5113789;28;20780;-81
2023/03/22 11:49:58;;;;;;;5.27;1.30;;;;;;;;;;5114784;28;20201;-81
2023/03/22 11:52:26;;;;;;;5.53;1.57;;;;;;;;;;5114210;28;20193;-80
2023/03/22 11:54:54;;;;;;;5.40;1.83;;;;;;;;;;5114699;28;20677;-80
2023/03/22 11:57:23;;;;;;;6.40;2.07;;;;;;;;;;5114883;28;20201;-80
2023/03/22 11:59:55;;;;;;;4.87;1.67;;;;;;;;;;5114618;28;20705;-81
2023/03/22 12:02:26;;;;;;;8.27;1.80;;;;;;;;;;5114168;28;20222;-80
2023/03/22 12:04:56;;;;;;;5.67;1.50;;;;;;;;;;5099740;28;20588;-79
2023/03/22 12:07:24;;;;;;;4.63;1.60;;;;;;;;;;5109811;27;20309;-80
2023/03/22 12:09:53;;;;;;;7.47;2.00;;;;;;;;;;5110016;28;20670;-78
2023/03/22 12:12:22;;;;;;;8.93;2.03;;;;;;;;;;5113258;28;20190;-81
2023/03/22 12:14:53;;;;;;;10.80;2.53;;;;;;;;;;5114058;28;20254;-81
2023/03/22 12:17:24;;;;;;;10.30;2.30;;;;;;;;;;5114180;28;20285;-81
2023/03/22 12:19:54;;;;;;;6.30;2.00;;;;;;;;;;5114213;28;20598;-78
2023/03/22 12:22:22;;;;;;;6.87;1.83;;;;;;;;;;5113860;28;20225;-80
2023/03/22 12:24:49;;;;;;;4.20;2.03;;;;;;;;;;5113532;28;20233;-80
2023/03/22 12:27:18;;;;;;;6.87;2.10;;;;;;;;;;5113773;28;20236;-80
2023/03/22 12:29:48;;;;;;;7.50;2.10;;;;;;;;;;5113877;28;20198;-80
2023/03/22 12:32:20;;;;;;;6.37;2.60;;;;;;;;;;5113306;28;20326;-79
2023/03/22 12:34:49;;;;;;;6.90;2.20;;;;;;;;;;5113200;28;20289;-81
2023/03/22 12:37:18;;;;;;;6.47;2.33;;;;;;;;;;5111595;28;20284;-79
2023/03/22 12:39:48;;;;;;;9.57;3.13;;;;;;;;;;5113564;28;20218;-80
2023/03/22 12:42:21;;;;;;;9.57;2.77;;;;;;;;;;5118872;27;20229;-79
2023/03/22 12:44:49;;;;;;;7.50;2.13;;;;;;;;;;5113458;28;20201;-80
2023/03/22 12:47:22;;;;;;;8.60;2.10;;;;;;;;;;5112238;28;20288;-79
2023/03/22 12:49:52;;;;;;;9.43;2.63;;;;;;;;;;5113963;28;20190;-79
2023/03/22 12:52:20;;;;;;;10.20;2.53;;;;;;;;;;5113246;28;20190;-79
2023/03/22 12:54:48;;;;;;;10.57;3.10;;;;;;;;;;5112576;27;20202;-80
2023/03/22 12:57:15;;;;;;;5.17;2.00;;;;;;;;;;5112530;28;20289;-78
2023/03/22 12:59:44;;;;;;;10.37;2.40;;;;;;;;;;5124126;27;20216;-78
2023/03/22 13:02:15;;;;;;;6.40;2.23;;;;;;;;;;5115326;27;20193;-79
2023/03/22 13:04:54;;;;;;;8.07;2.40;;;;;;;;;;5109508;28;20197;-76
2023/03/22 13:07:37;;;;;;;6.07;2.20;;;;;;;;;;5110752;28;20200;-75
2023/03/22 13:10:23;;;;;;;7.77;2.23;;;;;;;;;;5110264;28;20201;-77
2023/03/22 13:13:10;;;;;;;8.10;2.63;;;;;;;;;;5101681;28;20197;-76
2023/03/22 13:15:40;;;;;;;5.33;2.30;;;;;;;;;;5102234;28;20206;-76
2023/03/22 13:18:23;;;;;;;6.10;1.93;;;;;;;;;;5111056;28;20210;-77
2023/03/22 13:21:05;;;;;;;9.20;2.53;;;;;;;;;;5111440;28;20198;-77
2023/03/22 13:23:34;;;;;;;4.90;2.20;;;;;;;;;;5109358;28;20284;-76
2023/03/22 13:26:03;;;;;;;4.93;2.13;;;;;;;;;;5102612;28;20221;-76
2023/03/22 13:28:35;;;;;;;8.83;2.20;;;;;;;;;;5111180;28;20317;-75
2023/03/22 13:31:03;;;;;;;6.77;2.00;;;;;;;;;;5092196;28;20195;-77
2023/03/22 13:33:31;;;;;;;11.07;2.47;;;;;;;;;;5108606;28;20277;-77
2023/03/22 13:35:59;;;;;;;6.93;2.13;;;;;;;;;;5117299;27;20721;-77
2023/03/22 13:38:28;;;;;;;9.93;2.53;;;;;;;;;;5109952;27;20197;-77
2023/03/22 13:41:00;;;;;;;4.93;1.80;;;;;;;;;;5117961;27;20224;-76
2023/03/22 13:43:32;;;;;;;6.10;2.57;;;;;;;;;;5119574;27;20275;-76
2023/03/22 13:46:20;;;;;;;8.10;2.63;;;;;;;;;;5120597;27;20324;-77
2023/03/22 13:49:00;;;;;;;9.50;2.90;;;;;;;;;;5117709;27;20317;-77
2023/03/22 13:51:31;;;;;;;9.30;2.70;;;;;;;;;;5115406;27;20633;-77
2023/03/22 13:54:02;;;;;;;7.27;2.37;;;;;;;;;;5117588;27;20197;-77
2023/03/22 13:56:34;;;;;;;10.23;2.50;;;;;;;;;;5122983;27;20557;-78
2023/03/22 13:59:06;;;;;;;8.87;2.43;;;;;;;;;;5119928;27;20186;-78
2023/03/22 14:01:35;;;;;;;5.43;1.83;;;;;;;;;;5116845;27;20673;-77
2023/03/22 14:04:05;;;;;;;8.47;2.10;;;;;;;;;;5118817;27;20198;-77
2023/03/22 14:06:35;;;;;;;5.67;2.17;;;;;;;;;;5111679;28;20647;-77
2023/03/22 14:09:05;;;;;;;6.73;2.57;;;;;;;;;;5111323;28;20312;-79
2023/03/22 14:11:39;;;;;;;6.17;1.93;;;;;;;;;;5110446;28;20236;-79
2023/03/22 14:14:11;;;;;;;7.43;2.50;;;;;;;;;;5119933;27;20197;-79
2023/03/22 14:16:41;;;;;;;7.33;2.47;;;;;;;;;;5118910;27;20276;-77
2023/03/22 14:19:09;;;;;;;6.80;2.47;;;;;;;;;;5117453;27;20239;-79
2023/03/22 14:21:39;;;;;;;5.33;2.50;;;;;;;;;;5122329;27;20232;-78
2023/03/22 14:24:10;;;;;;;5.60;2.00;;;;;;;;;;5120611;27;20204;-78
2023/03/22 14:26:40;;;;;;;8.33;2.30;;;;;;;;;;5116271;27;20240;-78
2023/03/22 14:29:09;;;;;;;3.37;2.10;;;;;;;;;;5118462;27;20309;-79
2023/03/22 14:31:36;;;;;;;6.13;2.50;;;;;;;;;;5119081;27;20216;-78
2023/03/22 14:34:05;;;;;;;5.43;2.40;;;;;;;;;;5116044;27;20197;-80
2023/03/22 14:36:36;;;;;;;3.97;1.67;;;;;;;;;;5118740;27;20685;-79
2023/03/22 14:39:04;;;;;;;3.03;2.07;;;;;;;;;;5121568;27;20289;-79
2023/03/22 14:41:34;;;;;;;6.20;1.73;;;;;;;;;;5116883;27;20262;-79
2023/03/22 14:44:04;;;;;;;3.80;1.90;;;;;;;;;;5118964;28;20197;-80
2023/03/22 14:46:37;;;;;;;4.47;1.73;;;;;;;;;;5119536;27;20260;-78